Time;durP1;ratioP1;P1;durP2;ratioP2;P2;SDS_P1;SDS_P2;PMS_P1;PMS_P2;Temp;Humidity;BMP_temperature;BMP_pressure;BME280_temperature;BME280_humidity;BME280_pressure;Samples;Min_cycle;Max_cycle;Signal;HPM_P1;HPM_P2
2022/03/03 00:00:25;;;;;;;25.27;10.77;;;;;;;0.40;68.92;100167.09;6369879;28;20087;-72
2022/03/03 00:03:26;;;;;;;23.30;9.88;;;;;;;0.29;68.95;100174.13;6371162;27;20039;-72
2022/03/03 00:06:27;;;;;;;19.08;10.02;;;;;;;0.32;68.73;100173.22;6371148;28;20521;-72
2022/03/03 00:09:28;;;;;;;20.73;9.48;;;;;;;0.32;69.22;100174.06;6371117;27;20498;-72
2022/03/03 00:12:28;;;;;;;19.08;9.60;;;;;;;0.31;68.60;100174.09;6352842;28;20043;-72
2022/03/03 00:15:34;;;;;;;25.73;10.23;;;;;;;0.20;69.27;100167.41;6370858;28;20039;-71
2022/03/03 00:18:35;;;;;;;29.85;11.40;;;;;;;0.15;69.61;100169.22;6353378;28;20411;-71
2022/03/03 00:21:36;;;;;;;21.00;9.88;;;;;;;0.27;68.60;100165.63;6352661;28;20122;-72
2022/03/03 00:24:37;;;;;;;20.05;9.85;;;;;;;0.07;69.93;100159.97;6370951;27;20045;-72
2022/03/03 00:27:38;;;;;;;24.08;9.10;;;;;;;0.21;69.28;100163.16;6369522;28;20035;-72
2022/03/03 00:30:39;;;;;;;23.75;10.02;;;;;;;0.22;69.07;100164.00;6369720;28;20118;-72
2022/03/03 00:33:40;;;;;;;22.20;9.73;;;;;;;0.16;69.62;100158.06;6369560;28;20055;-72
2022/03/03 00:36:42;;;;;;;18.45;10.00;;;;;;;0.14;68.57;100158.97;6369433;28;20039;-72
2022/03/03 00:39:44;;;;;;;20.30;10.63;;;;;;;0.01;69.64;100158.34;6370683;27;20126;-71
2022/03/03 00:42:44;;;;;;;23.50;10.40;;;;;;;-0.03;69.47;100149.84;6371457;27;20039;-71
2022/03/03 00:45:45;;;;;;;20.90;10.77;;;;;;;0.04;69.81;100154.88;6373946;27;20059;-71
2022/03/03 00:48:46;;;;;;;24.17;10.57;;;;;;;-0.06;69.80;100149.06;6375097;27;20035;-71
2022/03/03 00:51:47;;;;;;;26.13;11.07;;;;;;;-0.14;69.87;100138.06;6375192;27;20118;-71
2022/03/03 00:54:48;;;;;;;22.30;10.45;;;;;;;-0.07;70.61;100144.78;6373729;27;20041;-71
2022/03/03 00:57:49;;;;;;;23.63;10.88;;;;;;;-0.18;70.71;100147.53;6373693;27;20178;-71
2022/03/03 01:00:49;;;;;;;26.88;11.15;;;;;;;-0.05;70.15;100150.75;6374855;27;20117;-71
2022/03/03 01:03:50;;;;;;;25.88;11.15;;;;;;;-0.09;70.71;100152.50;6374882;27;20046;-71
2022/03/03 01:06:51;;;;;;;20.45;9.95;;;;;;;-0.30;70.93;100137.47;6374800;27;20050;-72
2022/03/03 01:09:52;;;;;;;19.80;9.38;;;;;;;-0.27;70.72;100140.81;6373326;27;20126;-72
2022/03/03 01:12:53;;;;;;;24.10;10.18;;;;;;;-0.21;71.17;100122.78;6374644;27;20122;-72
2022/03/03 01:15:54;;;;;;;23.23;10.38;;;;;;;-0.10;70.33;100121.78;6373174;27;20072;-72
2022/03/03 01:18:54;;;;;;;22.58;10.73;;;;;;;-0.14;71.09;100125.25;6373150;27;20035;-72
2022/03/03 01:21:55;;;;;;;23.48;10.50;;;;;;;-0.05;70.25;100122.53;6374417;27;20470;-72
2022/03/03 01:24:56;;;;;;;21.63;9.82;;;;;;;-0.05;69.77;100120.78;6374403;27;20539;-71
2022/03/03 01:27:57;;;;;;;23.05;11.15;;;;;;;-0.18;70.87;100123.59;6372885;27;20043;-72
2022/03/03 01:30:58;;;;;;;21.75;10.10;;;;;;;-0.10;70.21;100114.06;6374182;27;20475;-72
2022/03/03 01:33:59;;;;;;;24.77;10.48;;;;;;;-0.24;71.04;100102.31;6372976;27;20046;-72
2022/03/03 01:37:00;;;;;;;20.38;9.68;;;;;;;-0.28;71.23;100099.81;6373803;27;20047;-72
2022/03/03 01:40:02;;;;;;;20.65;9.50;;;;;;;-0.30;71.45;100106.69;6372954;27;20058;-72
2022/03/03 01:43:03;;;;;;;21.02;11.02;;;;;;;-0.32;71.90;100100.72;6372738;27;20368;-72
2022/03/03 01:46:05;;;;;;;18.02;8.90;;;;;;;-0.30;71.56;100094.69;6373703;27;20047;-71
2022/03/03 01:49:06;;;;;;;21.38;10.57;;;;;;;-0.28;71.48;100095.53;6373596;27;20067;-72
2022/03/03 01:52:07;;;;;;;23.08;9.65;;;;;;;-0.31;71.50;100087.03;6355489;27;20043;-72
2022/03/03 01:55:09;;;;;;;21.27;10.02;;;;;;;-0.20;71.08;100085.16;6355174;27;20043;-72
2022/03/03 01:58:10;;;;;;;19.13;9.13;;;;;;;-0.13;71.09;100081.59;6373616;27;20130;-72
2022/03/03 02:01:12;;;;;;;20.05;9.50;;;;;;;-0.17;71.08;100077.41;6372162;27;20058;-72
2022/03/03 02:04:13;;;;;;;21.85;9.68;;;;;;;-0.20;71.61;100080.03;6373426;27;20088;-72
2022/03/03 02:07:14;;;;;;;18.67;9.60;;;;;;;-0.14;70.78;100084.22;6372166;27;20446;-72
2022/03/03 02:10:15;;;;;;;21.35;9.82;;;;;;;-0.22;71.32;100074.91;6371866;27;20053;-72
2022/03/03 02:13:15;;;;;;;19.67;9.27;;;;;;;-0.11;71.08;100071.31;6372031;27;20039;-72
2022/03/03 02:16:16;;;;;;;20.10;10.00;;;;;;;-0.04;71.12;100078.06;6371781;27;20043;-72
2022/03/03 02:19:19;;;;;;;19.83;9.95;;;;;;;-0.10;71.98;100071.31;6371786;27;20059;-72
2022/03/03 02:22:19;;;;;;;;;;;;;;;-0.19;72.70;100074.00;6372133;27;20475;-71
2022/03/03 02:25:21;;;;;;;17.08;8.90;;;;;;;-0.18;72.02;100080.00;6372913;27;19961;-71
2022/03/03 02:28:22;;;;;;;19.92;9.80;;;;;;;-0.32;73.35;100075.09;6371502;27;20049;-71
2022/03/03 02:31:23;;;;;;;21.98;10.13;;;;;;;-0.25;73.00;100080.09;6371915;27;20051;-71
2022/03/03 02:34:24;;;;;;;21.95;9.75;;;;;;;-0.32;72.91;100072.53;6371383;27;20046;-71
2022/03/03 02:37:31;;;;;;;20.02;9.88;;;;;;;-0.54;74.00;100065.16;6371230;27;20051;-71
2022/03/03 02:40:32;;;;;;;22.33;10.68;;;;;;;-0.37;73.13;100062.34;6372466;27;20047;-71
2022/03/03 02:43:33;;;;;;;20.75;10.38;;;;;;;-0.31;72.91;100058.81;6372320;27;20151;-71
2022/03/03 02:46:34;;;;;;;22.65;10.60;;;;;;;-0.39;73.51;100064.09;6372284;27;20092;-71
2022/03/03 02:49:34;;;;;;;20.75;10.68;;;;;;;-0.36;73.12;100060.63;6372127;27;20039;-71
2022/03/03 02:52:36;;;;;;;22.40;10.43;;;;;;;-0.43;73.79;100053.03;6371056;27;20050;-71
2022/03/03 02:55:36;;;;;;;22.05;10.65;;;;;;;-0.42;73.50;100041.06;6370848;27;20046;-71
2022/03/03 02:58:37;;;;;;;19.00;9.80;;;;;;;-0.32;73.11;100034.06;6370984;27;20518;-72
2022/03/03 03:01:38;;;;;;;20.95;9.30;;;;;;;-0.46;74.00;100035.13;6370702;27;20042;-71
2022/03/03 03:04:39;;;;;;;19.08;10.15;;;;;;;-0.45;74.36;100031.72;6353378;27;20096;-71
2022/03/03 03:07:40;;;;;;;22.25;10.27;;;;;;;-0.38;74.02;100026.47;6372010;27;20039;-71
2022/03/03 03:10:42;;;;;;;22.65;10.65;;;;;;;-0.34;73.58;100039.22;6371743;27;20031;-71
2022/03/03 03:13:42;;;;;;;22.03;10.03;;;;;;;-0.36;73.75;100027.31;6371922;27;20405;-72
2022/03/03 03:16:43;;;;;;;19.10;9.43;;;;;;;-0.38;74.14;100031.59;6370423;27;20114;-72
2022/03/03 03:19:44;;;;;;;21.98;10.20;;;;;;;-0.39;73.42;100025.63;6370484;27;20455;-71
2022/03/03 03:22:45;;;;;;;22.83;9.98;;;;;;;-0.53;74.42;100043.78;6371660;27;20043;-71
2022/03/03 03:25:50;;;;;;;21.38;9.20;;;;;;;-0.54;74.66;100039.53;6371988;27;20047;-71
2022/03/03 03:28:51;;;;;;;23.03;9.87;;;;;;;-0.50;74.26;100033.47;6370534;27;20047;-72
2022/03/03 03:31:52;;;;;;;21.55;10.70;;;;;;;-0.49;74.76;100039.47;6370233;27;20414;-71
2022/03/03 03:34:52;;;;;;;17.40;9.15;;;;;;;-0.43;73.71;100040.22;6353235;27;20486;-71
2022/03/03 03:37:54;;;;;;;22.25;9.23;;;;;;;-0.44;74.28;100033.38;6369980;27;20055;-72
2022/03/03 03:40:55;;;;;;;18.85;8.85;;;;;;;-0.44;73.94;100038.50;6371343;27;20471;-71
2022/03/03 03:43:55;;;;;;;19.13;9.45;;;;;;;-0.52;73.91;100042.91;6371237;28;20064;-68
2022/03/03 03:46:56;;;;;;;21.92;9.18;;;;;;;-0.73;74.16;100031.28;6371215;28;20051;-68
2022/03/03 03:49:58;;;;;;;24.55;9.95;;;;;;;-0.83;74.66;100032.28;6371149;27;20496;-67
2022/03/03 03:52:58;;;;;;;23.38;10.25;;;;;;;-0.79;74.67;100028.81;6371401;28;20039;-67
2022/03/03 03:55:59;;;;;;;20.95;10.80;;;;;;;-0.67;75.05;100028.63;6371039;28;20142;-67
2022/03/03 03:59:00;;;;;;;20.33;9.65;;;;;;;-0.61;74.90;100032.81;6353005;28;20046;-67
2022/03/03 04:02:01;;;;;;;19.67;9.70;;;;;;;-0.61;74.48;100032.81;6369796;28;20039;-68
2022/03/03 04:05:02;;;;;;;22.83;9.43;;;;;;;-0.57;75.34;100019.09;6371033;27;20051;-68
2022/03/03 04:08:05;;;;;;;21.33;9.98;;;;;;;-0.49;75.42;100024.09;6369927;28;20528;-68
2022/03/03 04:11:06;;;;;;;20.80;10.20;;;;;;;-0.58;74.91;100014.81;6369647;28;20039;-68
2022/03/03 04:14:07;;;;;;;19.48;9.80;;;;;;;-0.49;74.37;100017.25;6369905;28;20127;-68
2022/03/03 04:17:08;;;;;;;25.55;11.90;;;;;;;-0.52;74.69;100021.56;6371857;27;20077;-68
2022/03/03 04:20:09;;;;;;;26.23;12.02;;;;;;;-0.64;75.26;100013.22;6374727;27;20074;-68
2022/03/03 04:23:10;;;;;;;44.80;18.63;;;;;;;-0.50;75.19;100007.84;6357658;27;20121;-68
2022/03/03 04:26:12;;;;;;;23.95;10.73;;;;;;;-0.54;75.89;100013.06;6375877;27;20051;-67
2022/03/03 04:29:13;;;;;;;19.35;10.07;;;;;;;-0.61;76.58;100007.19;6374552;27;20035;-68
2022/03/03 04:32:13;;;;;;;25.25;9.90;;;;;;;-0.57;75.95;100013.13;6357329;27;20066;-68
2022/03/03 04:35:14;;;;;;;22.10;10.20;;;;;;;-0.47;75.04;100015.50;6374368;27;20501;-67
2022/03/03 04:38:15;;;;;;;24.95;10.95;;;;;;;-0.42;75.52;100012.84;6374353;27;20043;-69
2022/03/03 04:41:17;;;;;;;21.52;9.85;;;;;;;-0.38;75.10;100016.22;6375344;27;20043;-67
2022/03/03 04:44:18;;;;;;;26.05;10.90;;;;;;;-0.28;74.90;100025.44;6375311;27;20383;-67
2022/03/03 04:47:19;;;;;;;18.80;10.20;;;;;;;-0.22;75.54;100023.63;6375236;27;20071;-68
2022/03/03 04:50:20;;;;;;;19.95;9.85;;;;;;;-0.14;75.84;100022.66;6375160;27;20043;-67
2022/03/03 04:53:21;;;;;;;23.88;9.32;;;;;;;-0.12;75.27;100020.91;6375179;27;20035;-68
2022/03/03 04:56:22;;;;;;;20.42;9.63;;;;;;;-0.13;74.83;100014.91;6373779;27;20448;-67
2022/03/03 04:59:24;;;;;;;22.77;10.77;;;;;;;-0.15;75.55;100014.09;6373901;27;20041;-68
2022/03/03 05:02:25;;;;;;;24.00;10.70;;;;;;;-0.07;74.33;100013.97;6374883;27;20043;-68
2022/03/03 05:05:25;;;;;;;29.15;11.40;;;;;;;-0.09;74.55;100010.59;6374816;27;20175;-68
2022/03/03 05:08:26;;;;;;;22.98;10.95;;;;;;;0.01;75.22;100006.97;6374849;27;20039;-69
2022/03/03 05:11:27;;;;;;;21.17;10.50;;;;;;;0.08;73.82;100010.28;6373340;27;20042;-68
2022/03/03 05:14:28;;;;;;;20.98;10.55;;;;;;;0.08;74.25;100016.25;6374622;27;20043;-68
2022/03/03 05:17:30;;;;;;;19.30;10.13;;;;;;;0.26;73.63;100016.78;6373425;27;20039;-67
2022/03/03 05:20:31;;;;;;;25.40;9.57;;;;;;;0.23;72.59;100006.56;6373286;27;20050;-68
2022/03/03 05:23:32;;;;;;;21.55;9.52;;;;;;;0.22;73.66;100007.44;6390746;27;20488;-69
2022/03/03 05:26:32;;;;;;;25.75;10.98;;;;;;;0.25;72.83;100005.69;6374330;27;20039;-67
2022/03/03 05:29:34;;;;;;;29.52;16.00;;;;;;;0.35;72.37;100007.19;6373934;27;20098;-68
2022/03/03 05:32:36;;;;;;;28.80;16.90;;;;;;;0.32;72.67;100014.09;6355966;27;20043;-70
2022/03/03 05:35:39;;;;;;;30.80;14.88;;;;;;;0.41;72.49;100008.75;6374183;27;20059;-69
2022/03/03 05:38:40;;;;;;;23.67;11.23;;;;;;;0.47;71.84;100012.94;6373725;27;20043;-69
2022/03/03 05:41:41;;;;;;;17.50;9.25;;;;;;;0.60;71.25;100014.38;6374204;27;20046;-68
2022/03/03 05:44:42;;;;;;;28.83;9.68;;;;;;;0.54;71.55;100015.34;6373991;27;20040;-67
2022/03/03 05:47:45;;;;;;;23.30;10.30;;;;;;;0.60;70.88;100022.94;6374068;27;20462;-68
2022/03/03 05:50:46;;;;;;;22.08;9.68;;;;;;;0.65;71.10;100012.56;6373813;27;20099;-67
2022/03/03 05:53:47;;;;;;;30.40;10.30;;;;;;;0.66;71.00;100013.41;6372828;27;20043;-68
2022/03/03 05:56:50;;;;;;;17.17;9.57;;;;;;;0.64;71.52;100012.59;6372474;27;20039;-67
2022/03/03 05:59:51;;;;;;;21.98;10.32;;;;;;;0.65;71.25;100012.56;6373766;27;20071;-71
2022/03/03 06:02:54;;;;;;;20.00;9.63;;;;;;;0.60;71.16;100010.09;6355572;27;20069;-71
2022/03/03 06:05:58;;;;;;;;;;;;;;;0.75;70.78;100015.78;6372818;27;20122;-71
2022/03/03 06:09:09;;;;;;;38.65;12.95;;;;;;;0.90;70.04;100020.59;6373527;27;20428;-71
2022/03/03 06:12:30;;;;;;;28.38;11.95;;;;;;;0.92;70.72;100026.53;6373462;27;20118;-71
2022/03/03 06:15:33;;;;;;;24.27;9.98;;;;;;;1.00;69.77;100022.06;6373180;27;20079;-71
2022/03/03 06:18:34;;;;;;;23.45;10.65;;;;;;;1.16;69.52;100021.75;6372443;27;20394;-71
2022/03/03 06:21:35;;;;;;;18.67;9.98;;;;;;;1.25;69.23;100030.97;6371987;27;20039;-71
2022/03/03 06:24:36;;;;;;;22.95;10.68;;;;;;;1.12;68.40;100026.09;6371102;27;20249;-72
2022/03/03 06:27:37;;;;;;;27.75;12.63;;;;;;;1.20;69.59;100024.19;6372414;27;20114;-71
2022/03/03 06:30:38;;;;;;;25.08;12.23;;;;;;;1.36;68.35;100031.53;6354625;27;20629;-71
2022/03/03 06:33:40;;;;;;;37.25;11.07;;;;;;;1.51;68.68;100031.19;6372730;27;20099;-71
2022/03/03 06:36:41;;;;;;;24.33;12.93;;;;;;;1.55;68.60;100024.25;6372666;27;20035;-71
2022/03/03 06:39:41;;;;;;;23.73;12.43;;;;;;;1.58;68.49;100027.56;6370805;27;20046;-71
2022/03/03 06:42:42;;;;;;;27.48;13.75;;;;;;;1.59;69.84;100025.88;6371177;27;20039;-71
2022/03/03 06:45:43;;;;;;;106.00;37.70;;;;;;;1.65;68.75;100019.69;6371225;27;20066;-71
2022/03/03 06:48:45;;;;;;;143.88;47.65;;;;;;;1.71;66.31;100023.00;6372362;27;20042;-71
2022/03/03 06:51:47;;;;;;;55.80;25.75;;;;;;;1.63;66.71;100024.03;6354259;27;20494;-71
2022/03/03 06:54:53;;;;;;;32.88;15.90;;;;;;;1.69;66.58;100027.31;6371082;27;20050;-72
2022/03/03 06:57:56;;;;;;;33.53;15.05;;;;;;;1.87;66.60;100026.00;6372427;27;20368;-72
2022/03/03 07:00:57;;;;;;;;;;;;;;;1.90;65.11;100022.53;6372619;27;20042;-71
2022/03/03 07:03:58;;;;;;;28.65;11.63;;;;;;;1.99;64.76;100028.25;6370894;27;19923;-71
2022/03/03 07:06:59;;;;;;;23.85;12.80;;;;;;;2.12;63.81;100025.34;6370926;27;20130;-71
2022/03/03 07:10:01;;;;;;;27.25;12.45;;;;;;;2.24;63.10;100032.75;6370669;27;20045;-71
2022/03/03 07:13:02;;;;;;;26.33;13.07;;;;;;;2.60;62.25;100036.03;6370859;27;20054;-72
2022/03/03 07:16:25;;;;;;;26.70;11.35;;;;;;;2.68;60.45;100029.81;6353459;27;20391;-71
2022/03/03 07:19:26;;;;;;;30.27;13.25;;;;;;;2.98;59.40;100028.91;6357826;27;20153;-71
2022/03/03 07:22:41;;;;;;;26.48;13.73;;;;;;;3.09;59.12;100031.19;6348775;27;20492;-71
2022/03/03 07:25:48;;;;;;;29.10;13.25;;;;;;;2.93;57.98;100030.78;6351505;27;20126;-72
2022/03/03 07:28:53;;;;;;;28.27;12.65;;;;;;;3.11;58.15;100034.56;6355532;27;20056;-72
2022/03/03 07:31:56;;;;;;;28.15;12.63;;;;;;;3.45;58.48;100027.50;6361780;27;20436;-72
2022/03/03 07:35:02;;;;;;;27.42;12.07;;;;;;;3.55;56.68;100024.56;6364750;27;20095;-72
2022/03/03 07:38:19;;;;;;;28.70;13.20;;;;;;;3.65;56.06;100021.69;6366553;27;20065;-72
2022/03/03 07:41:22;;;;;;;28.67;13.63;;;;;;;3.63;55.55;100029.47;6358597;27;20272;-72
2022/03/03 07:44:23;;;;;;;24.10;11.82;;;;;;;3.74;55.03;100021.38;6364065;27;20039;-72
2022/03/03 07:47:27;;;;;;;28.23;12.52;;;;;;;4.03;54.50;100022.97;6371361;28;20078;-71
2022/03/03 07:50:28;;;;;;;27.00;12.90;;;;;;;4.07;53.81;100024.53;6369581;27;20051;-71
2022/03/03 07:53:29;;;;;;;23.92;12.35;;;;;;;4.34;53.14;100025.31;6351461;27;20488;-71
2022/03/03 07:56:40;;;;;;;24.83;10.68;;;;;;;4.47;51.71;100023.16;6349832;28;20046;-71
2022/03/03 07:59:47;;;;;;;26.83;12.68;;;;;;;4.74;52.38;100018.69;6351012;28;20410;-71
2022/03/03 08:02:53;;;;;;;22.35;12.05;;;;;;;5.16;51.47;100024.88;6350911;28;20464;-71
2022/03/03 08:05:56;;;;;;;24.85;12.23;;;;;;;5.42;51.04;100000.56;6349721;28;20055;-71
2022/03/03 08:08:59;;;;;;;27.95;11.85;;;;;;;5.65;49.43;100007.38;6349755;28;20414;-71
2022/03/03 08:12:05;;;;;;;30.10;12.52;;;;;;;5.88;49.50;100006.41;6350963;28;20041;-71
2022/03/03 08:15:07;;;;;;;26.75;12.45;;;;;;;6.31;48.36;100008.94;6350395;28;20641;-71
2022/03/03 08:18:09;;;;;;;26.23;12.45;;;;;;;5.99;48.44;100001.66;6349365;28;20109;-71
2022/03/03 08:21:11;;;;;;;24.80;12.27;;;;;;;6.08;47.47;100004.75;6350443;28;20043;-71
2022/03/03 08:24:12;;;;;;;24.95;11.20;;;;;;;5.76;48.53;99992.22;6350388;28;20042;-71
2022/03/03 08:27:13;;;;;;;22.48;10.75;;;;;;;5.67;48.02;100000.38;6350301;28;20044;-67
2022/03/03 08:30:15;;;;;;;25.35;12.07;;;;;;;5.68;49.19;99990.88;6348920;28;20059;-67
2022/03/03 08:33:20;;;;;;;26.55;10.38;;;;;;;5.82;47.78;99991.13;6348663;28;20052;-67
2022/03/03 08:36:35;;;;;;;25.88;12.07;;;;;;;6.12;48.75;99993.34;6349998;28;20104;-67
2022/03/03 08:39:38;;;;;;;24.20;12.00;;;;;;;5.93;46.53;99985.47;6331938;28;20036;-67
2022/03/03 08:42:44;;;;;;;29.77;11.52;;;;;;;6.50;46.01;99996.81;6348675;28;20051;-68
2022/03/03 08:45:45;;;;;;;25.08;10.82;;;;;;;6.22;45.95;99992.06;6348404;28;20059;-68
2022/03/03 08:48:48;;;;;;;26.10;11.48;;;;;;;6.33;45.92;99994.16;6331741;28;20096;-68
2022/03/03 08:51:49;;;;;;;25.23;11.73;;;;;;;6.90;44.42;99986.38;6349707;28;20127;-67
2022/03/03 08:54:50;;;;;;;27.50;11.80;;;;;;;6.95;45.08;99992.19;6348351;28;20040;-67
2022/03/03 08:57:52;;;;;;;23.23;11.35;;;;;;;7.39;44.71;99987.47;6348427;28;20054;-68
2022/03/03 09:00:53;;;;;;;21.48;10.55;;;;;;;7.10;43.95;99990.63;6349489;28;20041;-68
2022/03/03 09:03:54;;;;;;;23.83;10.85;;;;;;;7.11;42.71;99984.53;6348636;28;20039;-68
2022/03/03 09:06:54;;;;;;;32.53;11.65;;;;;;;7.14;42.19;99974.84;6331105;28;20479;-68
2022/03/03 09:09:56;;;;;;;25.77;12.50;;;;;;;7.12;41.74;99979.25;6348168;28;20427;-68
2022/03/03 09:12:57;;;;;;;25.73;11.68;;;;;;;7.30;41.83;99967.16;6347829;28;20048;-68
2022/03/03 09:15:58;;;;;;;24.20;11.73;;;;;;;7.26;41.45;99958.66;6356923;27;20130;-69
2022/03/03 09:19:00;;;;;;;22.90;11.98;;;;;;;7.38;42.21;99952.03;6358075;27;20039;-69
2022/03/03 09:22:01;;;;;;;26.52;12.43;;;;;;;7.33;41.46;99955.78;6373581;27;20116;-69
2022/03/03 09:25:02;;;;;;;24.15;11.50;;;;;;;7.43;41.72;99957.88;6361508;27;20490;-69
2022/03/03 09:28:04;;;;;;;32.03;12.43;;;;;;;7.50;41.56;99949.78;6356654;27;20085;-69
2022/03/03 09:31:05;;;;;;;18.55;9.38;;;;;;;7.24;41.04;99939.72;6347857;28;20088;-69
2022/03/03 09:34:06;;;;;;;30.05;12.10;;;;;;;7.59;40.88;99957.09;6357606;27;20039;-68
2022/03/03 09:37:07;;;;;;;21.85;10.52;;;;;;;7.52;40.84;99953.97;6368805;27;20039;-69
2022/03/03 09:40:09;;;;;;;23.15;11.43;;;;;;;7.79;41.23;99946.53;6356220;27;20051;-68
2022/03/03 09:43:10;;;;;;;30.87;12.90;;;;;;;8.00;40.44;99949.78;6359149;27;20067;-69
2022/03/03 09:46:11;;;;;;;22.00;12.00;;;;;;;8.25;40.22;99951.09;6342145;27;20160;-69
2022/03/03 09:49:12;;;;;;;26.00;13.30;;;;;;;7.67;40.07;99942.78;6359161;27;20088;-66
2022/03/03 09:52:19;;;;;;;21.95;11.60;;;;;;;7.53;39.94;99950.44;6348018;27;20032;-67
2022/03/03 09:55:20;;;;;;;26.05;12.55;;;;;;;8.19;39.51;99941.84;6351134;27;20540;-67
2022/03/03 09:58:21;;;;;;;24.40;11.52;;;;;;;8.00;39.61;99941.97;6330242;28;20039;-68
2022/03/03 10:01:27;;;;;;;30.35;11.90;;;;;;;7.95;39.37;99945.72;6330180;28;20059;-67
2022/03/03 10:04:28;;;;;;;28.85;12.75;;;;;;;8.06;38.90;99943.44;6346732;28;20047;-68
2022/03/03 10:07:29;;;;;;;23.50;11.95;;;;;;;7.84;39.81;99941.09;6358747;27;20046;-68
2022/03/03 10:10:30;;;;;;;26.83;11.48;;;;;;;8.37;39.07;99928.81;6369819;27;20047;-68
2022/03/03 10:13:46;;;;;;;24.08;12.15;;;;;;;8.72;38.83;99939.91;6372520;27;20486;-68
2022/03/03 10:16:48;;;;;;;27.77;12.13;;;;;;;8.84;37.42;99936.63;6370269;27;20498;-68
2022/03/03 10:19:56;;;;;;;27.00;12.27;;;;;;;8.68;38.39;99931.44;6372362;27;20036;-68
2022/03/03 10:22:57;;;;;;;24.58;12.15;;;;;;;8.28;37.90;99932.75;6372334;27;20155;-68
2022/03/03 10:26:01;;;;;;;19.93;9.43;;;;;;;8.44;38.04;99930.16;6371059;27;20047;-68
2022/03/03 10:29:01;;;;;;;25.10;11.20;;;;;;;8.37;38.09;99921.00;6371712;27;20548;-68
2022/03/03 10:32:03;;;;;;;23.30;10.68;;;;;;;8.77;36.86;99927.50;6354468;27;20051;-68
2022/03/03 10:35:20;;;;;;;20.20;9.77;;;;;;;8.97;36.97;99917.72;6354647;27;20051;-68
2022/03/03 10:38:21;;;;;;;26.95;12.82;;;;;;;8.94;37.39;99915.31;6371480;27;20408;-68
2022/03/03 10:41:36;;;;;;;19.38;9.93;;;;;;;9.03;36.63;99918.22;6372642;27;20046;-68
2022/03/03 10:44:37;;;;;;;29.70;10.68;;;;;;;8.71;38.17;99911.38;6372540;27;20115;-69
2022/03/03 10:47:44;;;;;;;21.80;9.95;;;;;;;8.63;37.04;99910.06;6353981;27;20055;-68
2022/03/03 10:50:46;;;;;;;21.23;10.50;;;;;;;8.77;37.40;99911.03;6371161;27;20042;-68
2022/03/03 10:53:47;;;;;;;24.63;11.73;;;;;;;9.14;36.84;99904.63;6354297;27;20043;-68
2022/03/03 10:56:49;;;;;;;22.30;11.20;;;;;;;9.11;36.26;99904.78;6370905;27;20122;-69
2022/03/03 10:59:50;;;;;;;21.25;11.40;;;;;;;8.90;37.02;99901.63;6371021;27;20035;-68
2022/03/03 11:02:56;;;;;;;17.85;10.20;;;;;;;9.06;37.12;99893.81;6372254;27;20068;-69
2022/03/03 11:05:57;;;;;;;22.23;10.63;;;;;;;8.96;36.80;99885.66;6371922;27;20122;-69
2022/03/03 11:08:59;;;;;;;22.98;11.38;;;;;;;9.28;38.31;99893.38;6372038;27;20039;-68
2022/03/03 11:12:02;;;;;;;22.80;10.35;;;;;;;9.81;34.99;99891.13;6370756;27;20379;-68
2022/03/03 11:15:04;;;;;;;22.15;10.43;;;;;;;9.39;34.82;99880.59;6371953;27;20035;-68
2022/03/03 11:18:09;;;;;;;22.13;11.25;;;;;;;9.14;35.72;99881.19;6370711;27;20070;-68
2022/03/03 11:21:12;;;;;;;24.77;11.38;;;;;;;9.23;36.38;99879.81;6370698;27;20077;-69
2022/03/03 11:24:18;;;;;;;21.13;10.68;;;;;;;9.04;36.15;99874.84;6371729;27;20035;-68
2022/03/03 11:27:19;;;;;;;20.00;9.88;;;;;;;9.41;35.35;99873.53;6369021;27;20479;-68
2022/03/03 11:30:31;;;;;;;19.20;9.85;;;;;;;9.64;35.92;99871.31;6365212;27;20138;-68
2022/03/03 11:33:33;;;;;;;16.60;10.18;;;;;;;9.25;34.85;99868.38;6345490;28;20062;-68
2022/03/03 11:36:43;;;;;;;20.73;10.10;;;;;;;9.66;34.94;99864.25;6371341;27;20130;-68
2022/03/03 11:39:55;;;;;;;21.45;11.30;;;;;;;9.68;35.27;99852.78;6370788;27;20039;-69
2022/03/03 11:42:56;;;;;;;23.83;11.30;;;;;;;9.51;36.07;99858.16;6370717;28;20118;-72
2022/03/03 11:45:59;;;;;;;19.98;10.93;;;;;;;9.93;35.76;99855.69;6371717;28;20546;-72
2022/03/03 11:49:12;;;;;;;18.98;9.95;;;;;;;9.73;33.65;99862.94;6370146;28;20047;-72
2022/03/03 11:52:20;;;;;;;23.92;10.52;;;;;;;10.03;33.07;99848.97;6370268;28;20422;-72
2022/03/03 11:55:31;;;;;;;22.23;9.82;;;;;;;10.07;33.19;99855.66;6371497;28;20043;-72
2022/03/03 11:58:40;;;;;;;23.10;10.25;;;;;;;9.67;33.48;99843.28;6370799;28;20504;-72
2022/03/03 12:01:55;;;;;;;19.70;9.43;;;;;;;9.41;33.95;99841.41;6371215;27;20111;-72
2022/03/03 12:05:27;;;;;;;20.25;9.48;;;;;;;10.15;33.73;99842.13;6360992;28;20050;-72
2022/03/03 12:08:30;;;;;;;25.50;9.52;;;;;;;9.96;34.93;99840.66;6348525;27;20074;-72
2022/03/03 12:11:36;;;;;;;14.45;7.68;;;;;;;10.14;32.11;99836.09;6348920;28;20047;-72
2022/03/03 12:14:49;;;;;;;25.52;10.63;;;;;;;9.92;33.52;99833.97;6360025;27;20046;-72
2022/03/03 12:18:02;;;;;;;17.77;8.32;;;;;;;9.81;33.25;99834.63;6368451;28;20039;-72
2022/03/03 12:21:21;;;;;;;17.63;8.02;;;;;;;9.88;33.85;99833.34;6371380;27;20051;-72
2022/03/03 12:24:33;;;;;;;16.95;8.48;;;;;;;10.18;33.86;99828.94;6370106;28;20474;-72
2022/03/03 12:27:34;;;;;;;18.20;8.52;;;;;;;10.27;33.77;99825.72;6352918;28;20040;-73
2022/03/03 12:30:46;;;;;;;17.63;7.65;;;;;;;9.79;33.62;99827.84;6371367;27;20399;-72
2022/03/03 12:34:08;;;;;;;20.27;8.43;;;;;;;9.80;33.21;99821.69;6371153;28;20471;-73
2022/03/03 12:37:10;;;;;;;17.75;8.93;;;;;;;9.62;34.39;99821.91;6371014;27;20294;-73
2022/03/03 12:40:15;;;;;;;16.42;9.20;;;;;;;9.93;33.68;99809.59;6371076;27;20479;-72
2022/03/03 12:43:17;;;;;;;17.90;9.30;;;;;;;10.04;33.10;99812.38;6364654;27;20403;-71
2022/03/03 12:46:18;;;;;;;25.65;9.48;;;;;;;9.74;33.98;99812.50;6355119;27;20062;-71
2022/03/03 12:49:22;;;;;;;28.80;11.55;;;;;;;9.72;34.73;99808.31;6351769;27;20043;-73
2022/03/03 12:52:25;;;;;;;19.80;9.48;;;;;;;9.93;32.85;99799.19;6365656;27;20059;-72
2022/03/03 12:55:32;;;;;;;20.63;9.90;;;;;;;9.71;33.31;99802.25;6374280;27;20043;-71
2022/03/03 12:58:35;;;;;;;17.67;9.13;;;;;;;9.50;33.67;99807.03;6375592;27;20475;-72
2022/03/03 13:01:37;;;;;;;20.08;10.18;;;;;;;9.16;34.53;99801.25;6375532;27;20042;-68
2022/03/03 13:04:47;;;;;;;19.70;10.32;;;;;;;8.59;34.83;99791.50;6363858;27;20039;-68
2022/03/03 13:07:48;;;;;;;28.02;11.07;;;;;;;8.90;35.48;99794.13;6361322;27;20113;-68
2022/03/03 13:10:51;;;;;;;18.27;9.60;;;;;;;9.25;34.68;99803.28;6370023;27;20459;-68
2022/03/03 13:13:58;;;;;;;20.33;9.80;;;;;;;9.79;34.15;99794.81;6366731;27;20484;-68
2022/03/03 13:17:08;;;;;;;17.30;8.52;;;;;;;9.77;33.92;99801.06;6371087;27;20035;-67
2022/03/03 13:20:10;;;;;;;19.65;9.77;;;;;;;9.71;33.80;99791.00;6363487;27;20092;-67
2022/03/03 13:23:13;;;;;;;19.13;8.73;;;;;;;9.80;33.86;99790.44;6374940;27;20072;-66
2022/03/03 13:26:21;;;;;;;17.95;8.90;;;;;;;9.88;33.16;99789.03;6351079;27;20415;-67
2022/03/03 13:29:23;;;;;;;19.33;9.00;;;;;;;9.72;35.19;99792.66;6349195;28;20043;-67
2022/03/03 13:32:24;;;;;;;21.83;10.50;;;;;;;8.92;34.16;99793.09;6351768;27;20488;-66
2022/03/03 13:35:37;;;;;;;16.92;9.05;;;;;;;9.55;33.24;99791.94;6368266;27;20074;-67
2022/03/03 13:38:39;;;;;;;21.48;8.95;;;;;;;9.74;34.68;99793.41;6374687;27;20044;-67
2022/03/03 13:41:40;;;;;;;15.27;8.90;;;;;;;9.84;32.69;99781.50;6374550;27;20469;-67
2022/03/03 13:44:49;;;;;;;18.58;8.85;;;;;;;9.81;33.05;99787.75;6361868;27;20043;-68
2022/03/03 13:48:09;;;;;;;22.15;11.05;;;;;;;9.89;32.91;99788.09;6348703;28;20036;-66
2022/03/03 13:51:10;;;;;;;23.00;10.07;;;;;;;9.57;33.07;99784.88;6348502;28;20088;-67
2022/03/03 13:54:11;;;;;;;28.70;13.20;;;;;;;9.80;33.08;99790.44;6349471;27;20043;-67
2022/03/03 13:57:30;;;;;;;25.40;10.43;;;;;;;9.40;33.71;99787.66;6338834;27;20500;-67
2022/03/03 14:00:31;;;;;;;20.10;9.52;;;;;;;9.15;32.74;99789.13;6373965;27;20551;-66
2022/03/03 14:03:35;;;;;;;27.67;8.80;;;;;;;9.13;33.75;99791.00;6374020;27;20039;-66
2022/03/03 14:06:44;;;;;;;17.10;8.63;;;;;;;9.14;34.00;99790.09;6366405;27;20379;-67